createdAt,value
2023-02-05T00:04:29.532Z,3.90
2023-02-05T00:09:47.713Z,3.73
2023-02-05T00:15:00.386Z,4.07
2023-02-05T00:20:05.241Z,5.03
2023-02-05T00:25:10.915Z,4.10
2023-02-05T00:30:19.656Z,3.57
2023-02-05T00:35:25.441Z,5.27
2023-02-05T00:40:30.459Z,3.67
2023-02-05T00:45:38.008Z,5.60
2023-02-05T00:50:43.092Z,4.87
2023-02-05T00:55:48.336Z,3.63
2023-02-05T01:00:56.224Z,4.13
2023-02-05T01:06:03.373Z,10.30
2023-02-05T01:11:11.367Z,6.93
2023-02-05T01:16:19.159Z,8.37
2023-02-05T01:21:26.641Z,8.63
2023-02-05T01:26:31.867Z,5.57
2023-02-05T01:31:39.561Z,5.53
2023-02-05T01:36:44.643Z,5.80
2023-02-05T01:41:49.585Z,6.70
2023-02-05T01:46:58.309Z,4.80
2023-02-05T01:52:14.757Z,6.17
2023-02-05T01:57:23.678Z,3.87
2023-02-05T02:02:31.589Z,7.87
2023-02-05T02:07:39.756Z,3.73
2023-02-05T02:12:48.593Z,3.90
2023-02-05T02:18:19.183Z,6.70
2023-02-05T02:23:40.342Z,11.10
2023-02-05T02:28:53.748Z,6.90
2023-02-05T02:34:03.550Z,5.47
2023-02-05T02:39:15.532Z,5.50
2023-02-05T02:44:31.393Z,7.43
2023-02-05T02:49:39.686Z,7.63
2023-02-05T02:54:49.857Z,5.43
2023-02-05T03:00:03.777Z,5.50
2023-02-05T03:05:14.412Z,4.43
2023-02-05T03:10:26.569Z,4.67
2023-02-05T03:15:35.416Z,3.67
2023-02-05T03:20:47.904Z,4.53
2023-02-05T03:25:53.636Z,4.33
2023-02-05T03:31:17.165Z,4.93
2023-02-05T03:36:28.722Z,7.63
2023-02-05T03:41:59.139Z,4.10
2023-02-05T03:47:20.101Z,4.10
2023-02-05T03:52:35.809Z,4.43
2023-02-05T03:57:45.366Z,5.03
2023-02-05T04:02:53.616Z,5.73
2023-02-05T04:08:03.167Z,4.17
2023-02-05T04:13:14.029Z,7.73
2023-02-05T04:18:23.625Z,8.30
2023-02-05T04:23:29.087Z,6.00
2023-02-05T04:28:34.630Z,8.00
2023-02-05T04:33:44.806Z,3.80
2023-02-05T04:38:52.143Z,6.60
2023-02-05T04:43:59.132Z,4.67
2023-02-05T04:49:06.864Z,8.07
2023-02-05T04:54:11.746Z,4.93
2023-02-05T04:59:17.025Z,4.97
2023-02-05T05:04:24.974Z,9.37
2023-02-05T05:09:30.385Z,7.23
2023-02-05T05:14:35.261Z,6.60
2023-02-05T05:19:43.101Z,7.33
2023-02-05T05:24:48.096Z,5.60
2023-02-05T05:29:54.646Z,6.13
2023-02-05T05:35:02.297Z,5.93
2023-02-05T05:40:20.699Z,4.20
2023-02-05T05:45:25.652Z,4.60
2023-02-05T05:50:33.293Z,4.43
2023-02-05T05:55:39.633Z,3.77
2023-02-05T06:00:45.619Z,5.13
2023-02-05T06:05:53.172Z,4.40
2023-02-05T06:10:58.501Z,6.00
2023-02-05T06:16:03.540Z,5.07
2023-02-05T06:21:11.367Z,5.67
2023-02-05T06:26:16.541Z,7.70
2023-02-05T06:31:21.970Z,10.60
2023-02-05T06:36:29.699Z,8.97
2023-02-05T06:41:34.672Z,6.40
2023-02-05T06:46:39.893Z,4.17
2023-02-05T06:51:47.495Z,5.03
2023-02-05T06:56:52.977Z,5.10
2023-02-05T07:01:57.912Z,12.17
2023-02-05T07:07:06.146Z,6.47
2023-02-05T07:12:11.634Z,5.20
2023-02-05T07:17:16.723Z,5.77
2023-02-05T07:22:24.178Z,4.57
2023-02-05T07:27:29.552Z,5.27
2023-02-05T07:32:34.409Z,7.93
2023-02-05T07:37:43.551Z,4.37
2023-02-05T07:42:48.461Z,4.43
2023-02-05T07:47:56.197Z,8.37
2023-02-05T07:53:03.756Z,6.30
2023-02-05T07:58:08.894Z,4.43
2023-02-05T08:03:14.087Z,7.90
2023-02-05T08:08:22.268Z,6.17
2023-02-05T08:13:27.163Z,4.67
2023-02-05T08:18:32.014Z,4.10
2023-02-05T08:23:39.706Z,5.80
2023-02-05T08:28:46.133Z,4.80
2023-02-05T08:33:53.219Z,6.30
2023-02-05T08:39:00.729Z,13.23
2023-02-05T08:44:05.597Z,14.00
2023-02-05T08:49:10.709Z,8.33
2023-02-05T08:54:18.579Z,8.27
2023-02-05T08:59:24.136Z,7.90
2023-02-05T09:04:29.442Z,5.37
2023-02-05T09:09:38.553Z,4.90
2023-02-05T09:14:44.909Z,6.70
2023-02-05T09:19:49.983Z,6.63
2023-02-05T09:24:57.695Z,3.60
2023-02-05T09:30:02.904Z,5.57
2023-02-05T09:35:08.172Z,6.03
2023-02-05T09:40:23.408Z,4.73
2023-02-05T09:45:39.345Z,4.03
2023-02-05T09:50:45.563Z,4.87
2023-02-05T09:55:53.913Z,7.20
2023-02-05T10:01:04.547Z,5.13
2023-02-05T10:06:18.663Z,5.00
2023-02-05T10:11:34.690Z,3.13
2023-02-05T10:16:52.734Z,4.87
2023-02-05T10:22:17.410Z,10.87
2023-02-05T10:27:27.217Z,2.80
2023-02-05T10:32:43.534Z,3.10
2023-02-05T10:37:57.647Z,4.70
2023-02-05T10:43:14.281Z,4.17
2023-02-05T10:48:40.003Z,3.47
2023-02-05T10:53:45.143Z,3.63
2023-02-05T10:58:56.984Z,3.97
2023-02-05T11:04:04.133Z,2.40
2023-02-05T11:09:31.674Z,4.03
2023-02-05T11:14:42.393Z,2.07
2023-02-05T11:19:55.948Z,2.50
2023-02-05T11:25:10.619Z,3.77
2023-02-05T11:35:58.714Z,3.50
2023-02-05T11:41:07.124Z,3.10
2023-02-05T11:46:20.038Z,2.37
2023-02-05T11:51:41.574Z,3.37
2023-02-05T11:56:46.499Z,5.03
2023-02-05T12:01:54.533Z,4.70
2023-02-05T12:07:05.631Z,3.77
2023-02-05T12:12:21.623Z,3.13
2023-02-05T12:17:39.855Z,2.43
2023-02-05T12:23:14.813Z,2.57
2023-02-05T12:28:33.480Z,1.97
2023-02-05T12:34:06.359Z,2.63
2023-02-05T12:39:25.642Z,2.77
2023-02-05T12:44:41.454Z,3.23
2023-02-05T12:50:36.347Z,3.23
2023-02-05T12:55:54.011Z,4.07
2023-02-05T13:01:07.219Z,2.50
2023-02-05T13:06:21.683Z,2.33
2023-02-05T13:11:31.744Z,3.63
2023-02-05T13:16:43.977Z,2.57
2023-02-05T13:22:06.214Z,2.97
2023-02-05T13:27:34.209Z,1.83
2023-02-05T13:32:40.702Z,2.47
2023-02-05T13:38:10.188Z,2.93
2023-02-05T13:43:36.799Z,5.13
2023-02-05T13:49:19.001Z,2.97
2023-02-05T13:54:56.098Z,5.03
2023-02-05T14:00:03.246Z,3.03
2023-02-05T14:05:17.803Z,7.67
2023-02-05T14:10:32.446Z,2.70
2023-02-05T14:15:42.405Z,4.60
2023-02-05T14:20:47.848Z,2.97
2023-02-05T14:26:13.849Z,3.20
2023-02-05T14:32:00.697Z,4.47
2023-02-05T14:37:06.379Z,5.20
2023-02-05T14:42:23.246Z,5.10
2023-02-05T14:47:31.509Z,4.70
2023-02-05T14:52:40.687Z,7.13
2023-02-05T14:57:51.194Z,11.13
2023-02-05T15:03:26.562Z,3.70
2023-02-05T15:08:44.300Z,10.50
2023-02-05T15:14:33.326Z,55.83
2023-02-05T15:19:44.757Z,44.23
2023-02-05T15:24:53.687Z,10.40
2023-02-05T15:29:58.877Z,12.17
2023-02-05T15:35:13.302Z,8.23
2023-02-05T15:40:26.364Z,4.50
2023-02-05T15:45:33.850Z,7.70
2023-02-05T15:50:48.368Z,4.97
2023-02-05T15:55:54.066Z,5.37
2023-02-05T16:01:00.012Z,9.80
2023-02-05T16:06:08.729Z,3.10
2023-02-05T16:11:13.673Z,4.30
2023-02-05T16:16:24.560Z,4.37
2023-02-05T16:21:36.349Z,6.77
2023-02-05T16:26:46.237Z,5.70
2023-02-05T16:31:51.609Z,9.37
2023-02-05T16:37:04.998Z,6.17
2023-02-05T16:42:11.650Z,6.77
2023-02-05T16:47:20.464Z,7.83
2023-02-05T16:52:36.199Z,6.07
2023-02-05T16:57:42.411Z,6.23
2023-02-05T17:02:50.277Z,12.60
2023-02-05T17:08:01.989Z,6.13
2023-02-05T17:13:08.827Z,9.20
2023-02-05T17:18:26.406Z,9.70
2023-02-05T17:23:34.384Z,10.40
2023-02-05T17:28:46.867Z,7.77
2023-02-05T17:33:54.318Z,5.87
2023-02-05T17:39:02.032Z,7.50
2023-02-05T17:44:08.689Z,6.03
2023-02-05T17:49:14.126Z,7.80
2023-02-05T17:54:23.063Z,9.23
2023-02-05T17:59:29.129Z,15.00
2023-02-05T18:04:34.827Z,16.53
2023-02-05T18:09:42.431Z,13.27
2023-02-05T18:14:47.359Z,15.93
2023-02-05T18:19:52.667Z,16.50
2023-02-05T18:25:00.362Z,15.90
2023-02-05T18:30:05.423Z,13.23
2023-02-05T18:35:14.710Z,15.53
2023-02-05T18:40:23.316Z,18.77
2023-02-05T18:45:31.466Z,15.10
2023-02-05T18:50:37.015Z,14.80
2023-02-05T18:55:44.881Z,14.30
2023-02-05T19:00:50.091Z,54.07
2023-02-05T19:05:55.103Z,26.07
2023-02-05T19:11:03.189Z,14.33
2023-02-05T19:16:14.008Z,15.07
2023-02-05T19:21:24.308Z,16.13
2023-02-05T19:26:32.813Z,11.40
2023-02-05T19:31:40.214Z,12.90
2023-02-05T19:36:48.445Z,11.97
2023-02-05T19:41:56.804Z,15.97
2023-02-05T19:47:02.462Z,16.37
2023-02-05T19:52:09.786Z,17.23
2023-02-05T19:57:20.504Z,14.53
2023-02-05T20:02:27.685Z,13.87
2023-02-05T20:07:34.099Z,15.47
2023-02-05T20:12:44.795Z,17.17
2023-02-05T20:17:51.329Z,16.60
2023-02-05T20:22:57.302Z,13.77
2023-02-05T20:28:05.490Z,19.43
2023-02-05T20:33:10.928Z,12.93
2023-02-05T20:38:16.258Z,16.33
2023-02-05T20:43:24.288Z,19.10
2023-02-05T20:48:32.672Z,20.80
2023-02-05T20:53:38.927Z,30.30
2023-02-05T20:58:49.931Z,16.57
2023-02-05T21:03:57.953Z,20.63
2023-02-05T21:09:03.094Z,16.53
2023-02-05T21:14:11.711Z,16.03
2023-02-05T21:19:18.548Z,17.77
2023-02-05T21:24:23.771Z,18.77
2023-02-05T21:29:33.894Z,20.50
2023-02-05T21:34:38.820Z,25.10
2023-02-05T21:39:44.386Z,17.20
2023-02-05T21:44:53.792Z,22.97
2023-02-05T21:49:58.662Z,20.97
2023-02-05T21:55:03.765Z,17.60
2023-02-05T22:00:12.729Z,15.87
2023-02-05T22:05:18.151Z,20.70
2023-02-05T22:10:23.266Z,21.73
2023-02-05T22:15:31.278Z,22.23
2023-02-05T22:20:36.704Z,31.17
2023-02-05T22:25:48.438Z,22.60
2023-02-05T22:31:02.132Z,28.00
2023-02-05T22:36:08.635Z,17.33
2023-02-05T22:41:16.047Z,17.57
2023-02-05T22:46:25.339Z,24.00
2023-02-05T22:51:31.953Z,30.10
2023-02-05T22:56:39.799Z,26.93
2023-02-05T23:01:47.478Z,24.77
2023-02-05T23:06:52.529Z,21.53
2023-02-05T23:11:58.491Z,26.63
2023-02-05T23:17:05.980Z,21.20
2023-02-05T23:22:11.387Z,21.70
2023-02-05T23:27:16.520Z,22.67
2023-02-05T23:32:24.202Z,24.63
2023-02-05T23:37:29.015Z,21.13
2023-02-05T23:42:33.884Z,22.33
2023-02-05T23:47:41.521Z,20.30
2023-02-05T23:52:46.382Z,23.17
2023-02-05T23:57:52.400Z,20.53
